Time;durP1;ratioP1;P1;durP2;ratioP2;P2;SDS_P1;SDS_P2;PMS_P1;PMS_P2;Temp;Humidity;BMP_temperature;BMP_pressure;BME280_temperature;BME280_humidity;BME280_pressure;Samples;Min_cycle;Max_cycle;Signal;HPM_P1;HPM_P2
2021/05/28 00:01:04;;;;;;;6.35;2.88;;;9.20;97.20;;;;;;4994742;28;20050;-79
2021/05/28 00:03:30;;;;;;;13.70;6.22;;;9.20;97.20;;;;;;4977414;28;20041;-79
2021/05/28 00:05:56;;;;;;;4.97;3.38;;;9.10;97.10;;;;;;4994537;28;20164;-79
2021/05/28 00:08:21;;;;;;;10.30;3.60;;;9.20;97.30;;;;;;4966268;28;20488;-79
2021/05/28 00:10:47;;;;;;;7.70;3.42;;;9.20;97.30;;;;;;5001486;28;20508;-79
2021/05/28 00:13:12;;;;;;;10.07;4.57;;;9.20;97.20;;;;;;4962855;28;20034;-80
2021/05/28 00:15:39;;;;;;;14.50;4.35;;;9.30;97.00;;;;;;4980991;28;20450;-80
2021/05/28 00:18:04;;;;;;;11.93;4.55;;;9.30;97.10;;;;;;4965238;28;20033;-80
2021/05/28 00:20:30;;;;;;;6.28;2.65;;;9.30;97.40;;;;;;4979465;28;20036;-79
2021/05/28 00:22:55;;;;;;;8.10;3.90;;;9.20;96.80;;;;;;4993221;28;20370;-79
2021/05/28 00:25:21;;;;;;;7.65;2.83;;;9.30;97.10;;;;;;4978619;28;20112;-79
2021/05/28 00:27:46;;;;;;;6.68;3.60;;;9.20;96.90;;;;;;4976151;28;20217;-79
2021/05/28 00:30:12;;;;;;;10.75;3.35;;;9.30;97.20;;;;;;4978298;28;20042;-79
2021/05/28 00:32:38;;;;;;;9.77;4.65;;;9.20;97.10;;;;;;4947417;28;20094;-80
2021/05/28 00:35:04;;;;;;;9.32;3.20;;;9.20;97.20;;;;;;5011511;28;20046;-79
2021/05/28 00:37:30;;;;;;;5.13;3.40;;;9.20;97.10;;;;;;4973997;28;20060;-79
2021/05/28 00:39:55;;;;;;;10.30;4.97;;;9.20;97.00;;;;;;4977009;28;20030;-79
2021/05/28 00:42:21;;;;;;;7.53;3.22;;;9.10;97.00;;;;;;4977732;28;20025;-79
2021/05/28 00:44:46;;;;;;;7.85;4.20;;;9.00;97.10;;;;;;4981391;28;20053;-79
2021/05/28 00:47:12;;;;;;;10.35;5.10;;;9.00;97.00;;;;;;4991126;28;20046;-79
2021/05/28 00:49:37;;;;;;;11.90;5.68;;;8.90;97.10;;;;;;4982611;28;20053;-79
2021/05/28 00:52:03;;;;;;;15.18;4.72;;;8.90;97.10;;;;;;4965950;28;20038;-79
2021/05/28 00:54:30;;;;;;;13.52;5.20;;;8.90;97.10;;;;;;4991346;28;20446;-79
2021/05/28 00:56:55;;;;;;;9.07;4.60;;;9.00;97.30;;;;;;4990375;28;20486;-80
2021/05/28 00:59:21;;;;;;;7.47;3.65;;;9.00;97.20;;;;;;4966179;28;20027;-79
2021/05/28 01:01:47;;;;;;;11.15;6.18;;;9.00;97.10;;;;;;4976659;28;20026;-79
2021/05/28 01:04:12;;;;;;;9.32;5.10;;;9.00;97.10;;;;;;4989545;28;20050;-80
2021/05/28 01:06:38;;;;;;;14.50;5.30;;;9.00;97.10;;;;;;4989899;28;20397;-80
2021/05/28 01:09:05;;;;;;;11.60;4.80;;;9.00;96.90;;;;;;4958450;28;20107;-79
2021/05/28 01:11:30;;;;;;;8.43;3.70;;;8.90;97.10;;;;;;4963217;28;20587;-79
2021/05/28 01:13:56;;;;;;;9.07;5.05;;;8.90;97.10;;;;;;4981848;28;20030;-80
2021/05/28 01:16:21;;;;;;;11.23;4.70;;;8.90;97.50;;;;;;4961425;28;20030;-79
2021/05/28 01:18:47;;;;;;;14.73;4.57;;;8.90;97.40;;;;;;4958579;28;20043;-79
2021/05/28 01:21:15;;;;;;;15.57;5.30;;;8.90;97.30;;;;;;4993785;28;20041;-79
2021/05/28 01:23:40;;;;;;;11.85;4.65;;;8.90;97.30;;;;;;4991179;28;20049;-79
2021/05/28 01:26:06;;;;;;;14.45;4.75;;;8.90;97.30;;;;;;4955900;28;20402;-79
2021/05/28 01:28:32;;;;;;;14.45;5.38;;;8.80;97.50;;;;;;4995399;28;20034;-79
2021/05/28 01:30:59;;;;;;;4.93;3.30;;;8.80;97.40;;;;;;4975059;28;20522;-79
2021/05/28 01:33:25;;;;;;;11.82;5.03;;;8.80;97.30;;;;;;4979128;28;20497;-79
2021/05/28 01:35:51;;;;;;;13.57;5.57;;;8.80;97.40;;;;;;4963330;28;20049;-79
2021/05/28 01:38:16;;;;;;;8.15;5.63;;;8.70;97.20;;;;;;4989805;28;20030;-78
2021/05/28 01:40:42;;;;;;;10.95;5.82;;;8.70;97.50;;;;;;4964613;28;20053;-78
2021/05/28 01:43:07;;;;;;;20.35;7.47;;;8.70;97.30;;;;;;4973582;28;20030;-78
2021/05/28 01:45:33;;;;;;;7.15;4.40;;;8.60;97.70;;;;;;4995771;28;20371;-78
2021/05/28 01:47:58;;;;;;;13.32;6.43;;;8.70;97.60;;;;;;4978524;28;20040;-78
2021/05/28 01:50:24;;;;;;;8.05;4.40;;;8.70;97.70;;;;;;4990170;28;20374;-78
2021/05/28 01:52:49;;;;;;;19.73;7.43;;;8.70;97.50;;;;;;4953777;28;20062;-78
2021/05/28 01:55:15;;;;;;;15.85;7.30;;;8.60;97.40;;;;;;4980808;28;20144;-78
2021/05/28 01:57:41;;;;;;;21.45;8.30;;;8.60;97.80;;;;;;4995172;28;20050;-78
2021/05/28 02:00:09;;;;;;;16.98;7.72;;;8.60;97.40;;;;;;4991605;28;20521;-78
2021/05/28 02:02:34;;;;;;;21.05;7.55;;;8.70;97.50;;;;;;4976664;28;20034;-78
2021/05/28 02:05:00;;;;;;;16.15;8.77;;;8.70;97.10;;;;;;4996278;28;20098;-79
2021/05/28 02:07:25;;;;;;;13.63;8.85;;;8.60;97.00;;;;;;4992641;28;20041;-78
2021/05/28 02:09:51;;;;;;;13.20;9.32;;;8.50;97.30;;;;;;4998900;28;20040;-79
2021/05/28 02:12:16;;;;;;;18.20;9.13;;;8.50;97.60;;;;;;4994557;28;20049;-79
2021/05/28 02:14:42;;;;;;;17.33;8.27;;;8.40;97.10;;;;;;4993081;28;20035;-79
2021/05/28 02:17:09;;;;;;;12.65;7.53;;;8.40;97.40;;;;;;4992265;28;20054;-80
2021/05/28 02:19:35;;;;;;;18.92;8.75;;;8.40;97.20;;;;;;4991247;28;20034;-79
2021/05/28 02:22:00;;;;;;;19.38;9.05;;;8.30;97.00;;;;;;4983601;28;20045;-79
2021/05/28 02:24:26;;;;;;;17.15;8.25;;;8.20;97.40;;;;;;4976326;28;20462;-79
2021/05/28 02:26:55;;;;;;;14.63;9.20;;;8.10;97.20;;;;;;4989439;28;20044;-79
2021/05/28 02:29:21;;;;;;;16.42;9.55;;;8.10;97.50;;;;;;4992397;28;20040;-80
2021/05/28 02:31:46;;;;;;;20.05;9.93;;;8.00;97.10;;;;;;4994118;28;20038;-79
2021/05/28 02:34:12;;;;;;;22.48;9.55;;;7.90;97.20;;;;;;4994352;28;20049;-79
2021/05/28 02:36:37;;;;;;;21.85;10.60;;;7.90;97.60;;;;;;4983970;28;20067;-79
2021/05/28 02:39:04;;;;;;;16.20;9.38;;;7.90;97.40;;;;;;4998706;28;20080;-79
2021/05/28 02:41:30;;;;;;;10.25;7.30;;;7.80;97.70;;;;;;4981342;28;20034;-79
2021/05/28 02:43:57;;;;;;;17.15;8.70;;;7.90;97.70;;;;;;4976539;28;20542;-79
2021/05/28 02:46:22;;;;;;;24.50;8.68;;;7.90;97.60;;;;;;4979850;28;20144;-79
2021/05/28 02:48:48;;;;;;;18.83;9.00;;;7.80;97.40;;;;;;4993047;28;20038;-79
2021/05/28 02:51:13;;;;;;;20.92;9.82;;;7.80;97.80;;;;;;4980891;28;20030;-80
2021/05/28 02:53:39;;;;;;;18.80;8.50;;;7.70;97.50;;;;;;4993926;28;20117;-79
2021/05/28 02:56:05;;;;;;;15.65;8.50;;;7.70;97.50;;;;;;4988047;28;20040;-79
2021/05/28 02:58:31;;;;;;;22.17;11.15;;;7.60;97.60;;;;;;4991073;28;20070;-79
2021/05/28 03:00:57;;;;;;;17.83;9.70;;;7.60;97.80;;;;;;4983152;28;20405;-80
2021/05/28 03:03:22;;;;;;;15.85;8.27;;;7.60;97.80;;;;;;4995580;28;20038;-79
2021/05/28 03:05:50;;;;;;;15.52;8.38;;;7.60;97.70;;;;;;4982589;28;20042;-79
2021/05/28 03:08:16;;;;;;;10.85;5.82;;;7.40;97.80;;;;;;4997694;28;20046;-79
2021/05/28 03:10:41;;;;;;;12.93;8.52;;;7.50;97.80;;;;;;4950986;28;20403;-79
2021/05/28 03:13:07;;;;;;;19.83;8.00;;;7.30;98.00;;;;;;5008080;28;20572;-79
2021/05/28 03:15:32;;;;;;;16.90;8.77;;;7.30;97.80;;;;;;4997422;28;20030;-79
2021/05/28 03:17:58;;;;;;;21.52;9.65;;;7.30;97.90;;;;;;4993795;28;20034;-79
2021/05/28 03:20:27;;;;;;;18.60;9.52;;;7.20;98.20;;;;;;4995129;28;20950;-79
2021/05/28 03:22:54;;;;;;;19.17;9.63;;;7.20;98.10;;;;;;4993962;28;20120;-79
2021/05/28 03:25:19;;;;;;;20.98;10.18;;;7.10;98.30;;;;;;4969007;28;20037;-79
2021/05/28 03:27:48;;;;;;;21.20;10.60;;;7.10;98.10;;;;;;4995899;28;20034;-79
2021/05/28 03:30:14;;;;;;;19.65;10.45;;;7.00;98.20;;;;;;4996484;28;20100;-79
2021/05/28 03:32:40;;;;;;;13.20;8.20;;;7.00;98.30;;;;;;4981038;28;20030;-79
2021/05/28 03:35:06;;;;;;;11.93;6.72;;;7.00;98.40;;;;;;4977052;28;20041;-79
2021/05/28 03:37:31;;;;;;;23.42;10.40;;;7.00;98.20;;;;;;4999321;28;20030;-78
2021/05/28 03:39:57;;;;;;;14.20;8.95;;;7.00;97.90;;;;;;4994337;28;20096;-79
2021/05/28 03:42:22;;;;;;;12.38;7.93;;;6.80;97.90;;;;;;4970944;28;20030;-79
2021/05/28 03:44:48;;;;;;;18.30;11.40;;;6.90;98.30;;;;;;4990769;28;20041;-79
2021/05/28 03:47:15;;;;;;;15.18;9.50;;;6.90;98.30;;;;;;4994761;28;20539;-80
2021/05/28 03:49:41;;;;;;;18.13;9.70;;;6.80;98.40;;;;;;4991268;28;20030;-79
2021/05/28 03:52:10;;;;;;;20.70;10.57;;;6.80;98.40;;;;;;4991973;28;20033;-79
2021/05/28 03:54:36;;;;;;;17.33;11.00;;;6.80;98.40;;;;;;4995305;28;20072;-79
2021/05/28 03:57:02;;;;;;;19.90;9.55;;;6.80;98.30;;;;;;4994627;28;20034;-79
2021/05/28 03:59:27;;;;;;;16.13;10.38;;;6.80;98.40;;;;;;4982138;28;20513;-79
2021/05/28 04:01:53;;;;;;;15.75;10.57;;;6.80;98.30;;;;;;4972568;28;20382;-79
2021/05/28 04:04:18;;;;;;;16.75;9.45;;;6.90;98.30;;;;;;4991845;28;20046;-79
2021/05/28 04:06:44;;;;;;;13.30;7.85;;;6.90;98.10;;;;;;4948149;28;20039;-79
2021/05/28 04:09:09;;;;;;;15.00;9.27;;;7.10;98.20;;;;;;4993617;28;20027;-79
2021/05/28 04:11:37;;;;;;;16.23;10.95;;;7.30;98.10;;;;;;4989915;28;20284;-79
2021/05/28 04:14:02;;;;;;;62.10;12.48;;;7.30;97.80;;;;;;4973320;28;20058;-79
2021/05/28 04:16:28;;;;;;;26.40;14.15;;;7.20;97.90;;;;;;4999704;28;20135;-79
2021/05/28 04:18:53;;;;;;;35.75;14.10;;;7.20;98.20;;;;;;4978380;28;20273;-79
2021/05/28 04:21:19;;;;;;;26.77;13.02;;;7.10;98.30;;;;;;5001648;28;20481;-79
2021/05/28 04:23:44;;;;;;;15.80;9.75;;;7.20;98.50;;;;;;4991767;28;20481;-79
2021/05/28 04:26:10;;;;;;;23.17;13.65;;;7.30;98.20;;;;;;4973248;28;20040;-79
2021/05/28 04:28:36;;;;;;;19.23;12.88;;;7.50;98.10;;;;;;4995182;28;20041;-79
2021/05/28 04:31:16;;;;;;;28.77;15.07;;;7.60;97.80;;;;;;5000484;28;20401;-79
2021/05/28 04:33:42;;;;;;;18.33;11.93;;;7.70;98.20;;;;;;4972326;28;20247;-79
2021/05/28 04:36:07;;;;;;;17.40;11.68;;;7.70;97.80;;;;;;4981245;28;20044;-79
2021/05/28 04:38:33;;;;;;;16.52;9.63;;;7.70;97.90;;;;;;4984721;28;20514;-78
2021/05/28 04:40:58;;;;;;;23.83;12.88;;;7.70;97.80;;;;;;4994682;28;20525;-78
2021/05/28 04:43:24;;;;;;;15.55;10.57;;;7.90;97.70;;;;;;4993470;28;20045;-78
2021/05/28 04:45:49;;;;;;;17.90;11.73;;;7.90;97.60;;;;;;4993408;28;20101;-78
2021/05/28 04:48:15;;;;;;;15.93;10.52;;;8.00;97.70;;;;;;4976823;28;20034;-78
2021/05/28 04:50:40;;;;;;;15.38;10.15;;;8.10;97.50;;;;;;4977725;28;20039;-78
2021/05/28 04:53:06;;;;;;;24.52;14.20;;;8.20;97.40;;;;;;4975045;28;20042;-79
2021/05/28 04:55:32;;;;;;;13.27;7.97;;;8.30;97.20;;;;;;4975073;28;20486;-78
2021/05/28 04:57:58;;;;;;;61.67;13.80;;;8.40;97.00;;;;;;4990932;28;20432;-78
2021/05/28 05:00:24;;;;;;;46.15;15.35;;;8.50;96.90;;;;;;4971214;28;20400;-79
2021/05/28 05:02:49;;;;;;;41.53;18.17;;;8.50;97.60;;;;;;4975760;28;20405;-78
2021/05/28 05:05:15;;;;;;;28.90;12.55;;;8.40;97.50;;;;;;4990975;28;20237;-78
2021/05/28 05:07:41;;;;;;;27.02;13.95;;;8.50;97.70;;;;;;4957279;28;20038;-78
2021/05/28 05:10:07;;;;;;;55.13;18.88;;;8.60;97.40;;;;;;4977078;28;20054;-79
2021/05/28 05:12:32;;;;;;;75.35;22.35;;;8.60;97.60;;;;;;4988961;28;20031;-79
2021/05/28 05:14:58;;;;;;;47.15;19.98;;;8.70;97.70;;;;;;4975322;28;20069;-79
2021/05/28 05:17:23;;;;;;;45.13;17.58;;;8.70;97.70;;;;;;4977637;28;20761;-79
2021/05/28 05:19:49;;;;;;;172.05;27.00;;;8.80;97.70;;;;;;4961705;28;20168;-79
2021/05/28 05:22:14;;;;;;;33.35;16.70;;;8.80;97.80;;;;;;4993797;28;20066;-79
2021/05/28 05:24:40;;;;;;;50.15;22.63;;;8.90;97.60;;;;;;4999922;28;20034;-79
2021/05/28 05:27:05;;;;;;;31.63;14.38;;;9.00;97.80;;;;;;4959206;28;20026;-79
2021/05/28 05:29:31;;;;;;;35.22;17.85;;;9.10;96.70;;;;;;4951703;28;20045;-79
2021/05/28 05:31:57;;;;;;;58.88;25.17;;;9.10;97.10;;;;;;4977331;28;20450;-78
2021/05/28 05:34:22;;;;;;;48.20;22.85;;;9.10;97.70;;;;;;4963426;28;20109;-78
2021/05/28 05:36:48;;;;;;;53.30;24.30;;;9.20;97.90;;;;;;4983307;28;20046;-78
2021/05/28 05:39:13;;;;;;;36.38;19.77;;;9.30;97.90;;;;;;4967385;28;20111;-79
2021/05/28 05:41:39;;;;;;;23.73;13.48;;;9.40;97.80;;;;;;4959711;28;20030;-79
2021/05/28 05:44:05;;;;;;;38.28;19.90;;;9.50;96.90;;;;;;4983348;28;20145;-79
2021/05/28 05:46:30;;;;;;;40.17;21.05;;;9.60;97.80;;;;;;4987518;28;20030;-78
2021/05/28 05:48:56;;;;;;;38.67;19.88;;;9.70;98.10;;;;;;4998136;28;20026;-78
2021/05/28 05:51:21;;;;;;;35.28;19.42;;;9.80;98.20;;;;;;4994820;28;20578;-78
2021/05/28 05:53:47;;;;;;;19.98;11.90;;;10.00;97.70;;;;;;4999889;28;20415;-78
2021/05/28 05:56:13;;;;;;;20.25;12.60;;;10.00;96.00;;;;;;4973407;28;20532;-78
2021/05/28 05:58:40;;;;;;;21.95;12.55;;;10.10;96.80;;;;;;4997251;28;20038;-78
2021/05/28 06:01:06;;;;;;;25.70;15.45;;;10.20;96.60;;;;;;5001659;28;20030;-78
2021/05/28 06:03:32;;;;;;;40.55;22.05;;;10.30;96.50;;;;;;4986944;28;20041;-78
2021/05/28 06:05:57;;;;;;;35.08;18.92;;;10.40;97.80;;;;;;4990091;28;20034;-78
2021/05/28 06:08:23;;;;;;;37.20;21.50;;;10.50;97.80;;;;;;4979329;28;20405;-78
2021/05/28 06:10:48;;;;;;;29.77;16.70;;;10.70;98.00;;;;;;4963051;28;20222;-78
2021/05/28 06:13:14;;;;;;;44.45;23.15;;;10.80;97.70;;;;;;4984030;28;20030;-78
2021/05/28 06:15:40;;;;;;;41.80;23.25;;;11.00;98.20;;;;;;4976195;28;20061;-79
2021/05/28 06:18:05;;;;;;;41.65;21.98;;;11.10;98.40;;;;;;4978690;28;20034;-78
2021/05/28 06:20:31;;;;;;;38.80;20.98;;;11.30;98.40;;;;;;4978187;28;20117;-78
2021/05/28 06:22:56;;;;;;;34.75;19.60;;;11.40;98.50;;;;;;4983087;28;20038;-78
2021/05/28 06:25:22;;;;;;;39.20;22.48;;;11.60;98.60;;;;;;4980109;28;20042;-78
2021/05/28 06:27:48;;;;;;;28.95;15.77;;;11.80;99.00;;;;;;4980414;28;20034;-78
2021/05/28 06:30:14;;;;;;;30.48;17.73;;;12.00;98.40;;;;;;4978953;28;20026;-78
2021/05/28 06:32:39;;;;;;;37.15;19.98;;;12.20;98.80;;;;;;4982337;28;20034;-79
2021/05/28 06:35:05;;;;;;;40.10;20.42;;;12.40;98.90;;;;;;4966004;28;20492;-78
2021/05/28 06:37:31;;;;;;;37.70;20.17;;;12.60;99.00;;;;;;4993963;28;20050;-78
2021/05/28 06:39:56;;;;;;;33.92;18.58;;;12.70;99.00;;;;;;4998492;28;20023;-78
2021/05/28 06:42:22;;;;;;;33.92;18.10;;;12.90;99.50;;;;;;4977578;28;20027;-78
2021/05/28 06:44:47;;;;;;;33.60;17.85;;;13.10;99.90;;;;;;4967751;28;20482;-78
2021/05/28 06:47:16;;;;;;;28.02;17.15;;;13.10;99.30;;;;;;4981821;28;20123;-79
2021/05/28 06:49:41;;;;;;;32.03;19.08;;;13.20;99.30;;;;;;4959620;28;20033;-78
2021/05/28 06:52:07;;;;;;;29.63;17.13;;;13.40;99.60;;;;;;4978973;28;20022;-78
2021/05/28 06:54:33;;;;;;;28.58;17.05;;;13.70;99.90;;;;;;4968129;28;20026;-79
2021/05/28 06:56:58;;;;;;;35.25;17.13;;;14.00;99.70;;;;;;4990601;28;20153;-79
2021/05/28 06:59:24;;;;;;;27.25;16.58;;;14.20;99.90;;;;;;4964086;28;20098;-79
2021/05/28 07:01:50;;;;;;;28.65;16.50;;;14.60;99.90;;;;;;4991262;28;20760;-79
2021/05/28 07:04:16;;;;;;;25.80;16.88;;;14.90;99.90;;;;;;4995527;28;20034;-79
2021/05/28 07:06:41;;;;;;;31.80;16.40;;;15.30;99.90;;;;;;4982496;28;20037;-79
2021/05/28 07:09:07;;;;;;;27.88;16.65;;;15.50;99.90;;;;;;4963740;28;20041;-79
2021/05/28 07:11:32;;;;;;;29.17;16.40;;;15.70;99.90;;;;;;4963301;28;20429;-79
2021/05/28 07:13:58;;;;;;;24.80;16.58;;;15.80;99.70;;;;;;4977682;28;20509;-79
2021/05/28 07:16:24;;;;;;;27.25;16.10;;;16.00;99.50;;;;;;4978678;28;20486;-79
2021/05/28 07:18:49;;;;;;;20.98;13.88;;;16.10;99.60;;;;;;4965019;28;20061;-79
2021/05/28 07:21:15;;;;;;;23.63;14.90;;;16.20;99.60;;;;;;4977124;28;20030;-80
2021/05/28 07:23:40;;;;;;;22.55;13.70;;;16.50;99.50;;;;;;4942863;28;20526;-79
2021/05/28 07:26:06;;;;;;;24.77;14.75;;;16.70;99.50;;;;;;4959072;28;20042;-79
2021/05/28 07:28:32;;;;;;;22.73;14.07;;;17.00;99.30;;;;;;4973491;28;20026;-79
2021/05/28 07:30:57;;;;;;;24.63;15.25;;;17.10;98.70;;;;;;4979827;28;20039;-79
2021/05/28 07:33:23;;;;;;;31.20;20.60;;;17.10;97.50;;;;;;4966454;28;20533;-79
2021/05/28 07:35:49;;;;;;;31.50;19.27;;;17.20;98.30;;;;;;4969949;28;20046;-79
2021/05/28 07:38:14;;;;;;;32.20;21.77;;;17.20;98.10;;;;;;4964448;28;20037;-79
2021/05/28 07:40:40;;;;;;;27.17;18.75;;;17.20;97.90;;;;;;4976606;28;20039;-79
2021/05/28 07:43:06;;;;;;;30.80;19.98;;;17.20;98.00;;;;;;4945711;28;20166;-79
2021/05/28 07:45:31;;;;;;;32.42;21.45;;;17.10;97.50;;;;;;4977870;28;20102;-79
2021/05/28 07:47:57;;;;;;;37.28;20.48;;;17.10;97.30;;;;;;4976141;28;20031;-79
2021/05/28 07:50:22;;;;;;;34.53;21.35;;;17.10;97.40;;;;;;4995447;28;20489;-79
2021/05/28 07:52:48;;;;;;;35.15;20.35;;;17.20;97.40;;;;;;4960856;28;20065;-78
2021/05/28 07:55:14;;;;;;;31.00;19.20;;;17.30;96.80;;;;;;4991557;28;20417;-79
2021/05/28 07:57:39;;;;;;;32.65;18.77;;;17.50;97.60;;;;;;4981045;28;20026;-79
2021/05/28 08:00:06;;;;;;;33.25;19.40;;;17.50;96.80;;;;;;4992222;28;20038;-79
2021/05/28 08:02:31;;;;;;;32.72;19.55;;;17.60;96.90;;;;;;4976493;28;20033;-79
2021/05/28 08:04:57;;;;;;;35.03;20.23;;;17.80;96.90;;;;;;4962233;28;20376;-79
2021/05/28 08:07:23;;;;;;;42.10;22.20;;;18.00;96.40;;;;;;4985059;28;20029;-79
2021/05/28 08:09:49;;;;;;;38.75;22.30;;;18.20;96.30;;;;;;4970470;28;20037;-79
2021/05/28 08:12:17;;;;;;;49.67;27.08;;;18.40;95.80;;;;;;4989739;28;20025;-79
2021/05/28 08:14:43;;;;;;;45.38;24.63;;;18.50;94.70;;;;;;4993352;28;20039;-79
2021/05/28 08:17:09;;;;;;;48.17;24.73;;;18.60;95.50;;;;;;4993870;28;20026;-79
2021/05/28 08:19:34;;;;;;;42.05;23.52;;;18.80;95.20;;;;;;4985668;28;20077;-79
2021/05/28 08:22:00;;;;;;;42.28;23.95;;;18.90;94.70;;;;;;4979304;28;20053;-79
2021/05/28 08:24:26;;;;;;;46.22;25.73;;;18.80;94.20;;;;;;4967585;28;20034;-80
2021/05/28 08:26:51;;;;;;;44.58;24.40;;;18.90;94.00;;;;;;4978495;28;20061;-80
2021/05/28 08:29:17;;;;;;;47.15;25.15;;;19.10;94.00;;;;;;4990853;28;20057;-80
2021/05/28 08:31:42;;;;;;;51.30;25.42;;;19.30;94.10;;;;;;4988342;28;20030;-80
2021/05/28 08:34:08;;;;;;;53.15;26.55;;;19.20;93.00;;;;;;4965157;28;20049;-80
2021/05/28 08:36:33;;;;;;;56.30;27.88;;;19.50;94.10;;;;;;4977826;28;20042;-80
2021/05/28 08:38:59;;;;;;;57.65;30.80;;;19.90;94.00;;;;;;4980351;28;20056;-80
2021/05/28 08:41:25;;;;;;;58.45;29.13;;;20.10;94.30;;;;;;4976383;28;20069;-80
2021/05/28 08:43:50;;;;;;;52.17;28.30;;;20.50;94.10;;;;;;4979575;28;20406;-80
2021/05/28 08:46:16;;;;;;;59.90;29.40;;;20.50;93.00;;;;;;4979251;28;20037;-80
2021/05/28 08:48:43;;;;;;;58.60;31.15;;;20.60;93.90;;;;;;4977614;28;20088;-80
2021/05/28 08:51:09;;;;;;;58.80;29.45;;;20.60;92.70;;;;;;4993706;28;20370;-80
2021/05/28 08:53:34;;;;;;;59.15;29.85;;;20.70;92.40;;;;;;4996502;28;20037;-80
2021/05/28 08:56:00;;;;;;;59.60;29.10;;;21.00;93.40;;;;;;4990902;28;20421;-80
2021/05/28 08:58:26;;;;;;;58.15;29.02;;;21.00;91.90;;;;;;4991598;28;20378;-80
2021/05/28 09:00:52;;;;;;;52.65;26.50;;;20.90;91.10;;;;;;4992673;28;20545;-80
2021/05/28 09:03:28;;;;;;;54.58;27.63;;;20.80;91.30;;;;;;4978815;28;20042;-80
2021/05/28 09:05:57;;;;;;;;;;;20.90;92.10;;;;;;4994104;28;20109;-80
2021/05/28 09:08:27;;;;;;;57.38;27.08;;;20.90;91.40;;;;;;4992904;28;20477;-80
2021/05/28 09:10:56;;;;;;;49.10;24.80;;;21.20;91.70;;;;;;4977423;28;20480;-80
2021/05/28 09:13:25;;;;;;;47.78;24.85;;;21.50;91.40;;;;;;4988749;28;20022;-80
2021/05/28 09:16:04;;;;;;;48.17;24.17;;;21.70;90.60;;;;;;4974908;28;20038;-80
2021/05/28 09:18:39;;;;;;;48.00;25.90;;;21.90;91.70;;;;;;4991841;28;20091;-80
2021/05/28 09:21:05;;;;;;;52.67;25.57;;;22.30;90.80;;;;;;4990180;28;20497;-80
2021/05/28 09:23:30;;;;;;;55.78;29.90;;;22.30;89.30;;;;;;4978188;28;20061;-80
2021/05/28 09:26:04;;;;;;;51.00;27.48;;;22.50;90.20;;;;;;4978051;28;20057;-80
2021/05/28 09:28:39;;;;;;;48.72;25.67;;;22.60;89.10;;;;;;4975217;28;20142;-80
2021/05/28 09:31:08;;;;;;;46.33;24.55;;;22.70;89.60;;;;;;4993054;28;20092;-80
2021/05/28 09:33:38;;;;;;;47.13;24.70;;;22.80;89.40;;;;;;4969420;28;20026;-80
2021/05/28 09:36:11;;;;;;;40.50;23.08;;;23.10;88.30;;;;;;4990724;28;20092;-80
2021/05/28 09:38:37;;;;;;;43.90;22.85;;;23.20;87.70;;;;;;4984001;28;20033;-81
2021/05/28 09:41:03;;;;;;;50.10;27.13;;;23.30;86.20;;;;;;4961123;28;20517;-80
2021/05/28 09:43:29;;;;;;;40.70;23.65;;;23.50;88.20;;;;;;4988255;28;20034;-80
2021/05/28 09:45:54;;;;;;;38.80;21.65;;;23.70;86.30;;;;;;4948955;28;20038;-80
2021/05/28 09:48:22;;;;;;;37.78;22.20;;;23.90;86.70;;;;;;5009405;28;20037;-80
2021/05/28 09:50:56;;;;;;;36.95;20.52;;;24.00;85.10;;;;;;4978261;28;20030;-80
2021/05/28 09:53:30;;;;;;;40.00;21.23;;;24.00;83.60;;;;;;4991123;28;20026;-80
2021/05/28 09:55:56;;;;;;;35.10;19.95;;;23.90;83.40;;;;;;4991659;28;20035;-80
2021/05/28 09:58:22;;;;;;;28.95;17.13;;;23.90;84.00;;;;;;4983251;28;20042;-80
2021/05/28 10:00:48;;;;;;;26.95;17.33;;;24.10;83.30;;;;;;4994485;28;20036;-81
2021/05/28 10:03:22;;;;;;;27.52;15.80;;;24.30;82.60;;;;;;4997243;28;20073;-80
2021/05/28 10:05:58;;;;;;;24.48;13.93;;;24.40;83.50;;;;;;4993808;28;20117;-81
2021/05/28 10:08:25;;;;;;;22.10;14.60;;;24.70;81.90;;;;;;4983359;28;20038;-81
2021/05/28 10:10:51;;;;;;;24.08;14.95;;;24.90;80.50;;;;;;4968892;28;20034;-81
2021/05/28 10:13:18;;;;;;;21.67;12.43;;;25.00;81.70;;;;;;4962419;28;20060;-81
2021/05/28 10:15:54;;;;;;;23.58;14.05;;;24.90;81.20;;;;;;4972636;28;20747;-82
2021/05/28 10:18:20;;;;;;;21.35;13.43;;;25.00;83.20;;;;;;4977855;28;20034;-81
2021/05/28 10:20:47;;;;;;;25.77;15.40;;;25.30;79.20;;;;;;4982436;28;20558;-82
2021/05/28 10:23:13;;;;;;;19.80;12.65;;;25.30;77.00;;;;;;4990967;28;20431;-81
2021/05/28 10:25:39;;;;;;;23.65;16.25;;;25.30;77.30;;;;;;4964216;28;20088;-81
2021/05/28 10:28:12;;;;;;;19.40;12.80;;;25.50;73.40;;;;;;4971089;28;20565;-81
2021/05/28 10:30:42;;;;;;;22.58;13.32;;;25.50;76.20;;;;;;4986810;28;20511;-82
2021/05/28 10:33:18;;;;;;;17.08;10.13;;;25.50;71.30;;;;;;5002364;28;20033;-82
2021/05/28 10:35:46;;;;;;;14.35;7.65;;;25.50;74.70;;;;;;4981942;28;20048;-82
2021/05/28 10:38:30;;;;;;;10.63;7.72;;;25.70;70.00;;;;;;4988552;28;20034;-82
2021/05/28 10:41:18;;;;;;;14.15;8.50;;;25.50;69.10;;;;;;5002238;28;20083;-81
2021/05/28 10:43:50;;;;;;;15.00;8.93;;;25.30;69.00;;;;;;5001357;28;20430;-81
2021/05/28 10:46:18;;;;;;;15.82;9.02;;;25.30;71.60;;;;;;5005707;28;20525;-82
2021/05/28 10:48:44;;;;;;;18.13;10.95;;;25.30;68.80;;;;;;4995740;28;20027;-83
2021/05/28 10:51:14;;;;;;;18.27;10.85;;;25.40;71.10;;;;;;5005625;28;20041;-82
2021/05/28 10:53:51;;;;;;;15.38;9.20;;;25.50;73.40;;;;;;4986821;28;20030;-82
2021/05/28 10:56:27;;;;;;;17.30;11.65;;;25.80;71.30;;;;;;4990544;28;20052;-83
2021/05/28 10:58:59;;;;;;;13.10;9.40;;;25.90;67.70;;;;;;4985104;28;20061;-83
2021/05/28 11:01:51;;;;;;;15.98;9.27;;;26.00;72.60;;;;;;4982580;28;20026;-83
2021/05/28 11:04:23;;;;;;;13.38;7.30;;;26.10;66.50;;;;;;5002498;28;20056;-82
2021/05/28 11:06:54;;;;;;;12.95;8.57;;;26.00;68.70;;;;;;4973712;28;20042;-82
2021/05/28 11:09:37;;;;;;;13.27;7.38;;;26.10;66.60;;;;;;5003676;28;20394;-82
2021/05/28 11:12:09;;;;;;;12.10;7.38;;;26.20;71.70;;;;;;4982675;28;20033;-82
2021/05/28 11:14:36;;;;;;;12.50;7.65;;;26.10;69.40;;;;;;4966140;28;20058;-82
2021/05/28 11:17:01;;;;;;;10.48;7.43;;;26.30;72.50;;;;;;4987365;28;20558;-81
2021/05/28 11:19:38;;;;;;;10.10;6.03;;;26.50;72.80;;;;;;5002771;28;20125;-82
2021/05/28 11:22:06;;;;;;;10.50;6.47;;;26.90;70.30;;;;;;4988002;28;20491;-81
2021/05/28 11:24:51;;;;;;;9.65;7.00;;;26.80;70.30;;;;;;4996194;28;20030;-81
2021/05/28 11:27:23;;;;;;;10.77;8.15;;;27.10;68.80;;;;;;4999873;28;20045;-81
2021/05/28 11:30:04;;;;;;;10.25;6.82;;;27.00;69.00;;;;;;4998583;28;20409;-79
2021/05/28 11:32:32;;;;;;;10.38;7.35;;;26.70;68.70;;;;;;4659053;28;10000682;-80
2021/05/28 11:35:13;;;;;;;12.75;6.90;;;26.50;65.70;;;;;;4654349;28;9999673;-80
2021/05/28 11:37:43;;;;;;;10.57;6.30;;;26.50;67.60;;;;;;4997109;28;20061;-80
2021/05/28 11:40:22;;;;;;;11.75;7.97;;;26.70;67.10;;;;;;4995256;28;20030;-81
2021/05/28 11:42:48;;;;;;;11.13;7.63;;;26.80;67.90;;;;;;4971506;28;20040;-82
2021/05/28 11:45:15;;;;;;;14.10;9.02;;;27.00;65.40;;;;;;4983505;28;20034;-82
2021/05/28 11:47:41;;;;;;;14.73;9.13;;;27.10;65.80;;;;;;4971350;28;20025;-82
2021/05/28 11:50:08;;;;;;;13.80;7.55;;;27.10;61.60;;;;;;4967261;28;20058;-82
2021/05/28 11:52:34;;;;;;;14.98;9.55;;;27.10;62.60;;;;;;4981718;28;20041;-81
2021/05/28 11:55:12;;;;;;;15.23;9.27;;;27.10;62.40;;;;;;4959394;28;20030;-83
2021/05/28 11:57:38;;;;;;;12.85;8.02;;;27.30;60.30;;;;;;4990677;28;20045;-83
2021/05/28 12:00:07;;;;;;;14.90;9.27;;;27.50;64.50;;;;;;4986045;28;20413;-82
2021/05/28 12:02:49;;;;;;;13.77;9.45;;;27.70;61.60;;;;;;4999783;28;20767;-82
2021/05/28 12:05:30;;;;;;;10.80;7.30;;;28.10;64.40;;;;;;4985189;28;20030;-83
2021/05/28 12:07:59;;;;;;;15.27;9.27;;;28.20;65.30;;;;;;5003157;28;20038;-83
2021/05/28 12:10:27;;;;;;;15.80;10.32;;;28.20;60.90;;;;;;4989409;28;20542;-82
2021/05/28 12:13:19;;;;;;;11.25;7.03;;;28.40;59.80;;;;;;4987993;28;20034;-83
2021/05/28 12:15:52;;;;;;;11.95;7.10;;;28.50;56.70;;;;;;5013877;28;20076;-83
2021/05/28 12:18:18;;;;;;;5.88;4.40;;;28.50;57.60;;;;;;4967130;28;20034;-83
2021/05/28 12:20:45;;;;;;;5.22;3.83;;;28.30;54.30;;;;;;4998471;28;20038;-83
2021/05/28 12:23:18;;;;;;;4.15;3.67;;;28.20;57.50;;;;;;4985432;28;20030;-82
2021/05/28 12:25:49;;;;;;;6.88;3.88;;;28.10;59.50;;;;;;5001976;28;20501;-83
2021/05/28 12:28:22;;;;;;;6.13;4.47;;;28.40;59.70;;;;;;5002902;28;20049;-83
2021/05/28 12:30:49;;;;;;;4.72;4.05;;;28.30;58.50;;;;;;4994932;28;20061;-83
2021/05/28 12:33:16;;;;;;;5.70;4.10;;;28.20;56.20;;;;;;4987350;28;20044;-83
2021/05/28 12:35:41;;;;;;;4.35;3.88;;;28.10;52.80;;;;;;5000331;28;20064;-84
2021/05/28 12:38:12;;;;;;;5.32;3.88;;;28.10;52.80;;;;;;4972863;28;20029;-83